sensor_id;sensor_type;location;lat;lon;timestamp;pressure;altitude;pressure_sealevel;temperature;humidity
75942;BME280;64622;46.220;19.878;2023-12-22T00:01:53;98249.53;;;5.91;100.00
75942;BME280;64622;46.220;19.878;2023-12-22T00:04:20;98240.00;;;5.73;100.00
75942;BME280;64622;46.220;19.878;2023-12-22T00:06:47;98246.09;;;5.82;100.00
75942;BME280;64622;46.220;19.878;2023-12-22T00:09:15;98236.53;;;5.96;100.00
75942;BME280;64622;46.220;19.878;2023-12-22T00:11:42;98237.62;;;6.01;100.00
75942;BME280;64622;46.220;19.878;2023-12-22T00:14:08;98234.53;;;5.97;100.00
75942;BME280;64622;46.220;19.878;2023-12-22T00:16:37;98217.59;;;5.98;100.00
75942;BME280;64622;46.220;19.878;2023-12-22T00:19:04;98220.84;;;5.86;100.00
75942;BME280;64622;46.220;19.878;2023-12-22T00:21:43;98228.19;;;5.76;100.00
75942;BME280;64622;46.220;19.878;2023-12-22T00:24:09;98222.91;;;5.76;100.00
75942;BME280;64622;46.220;19.878;2023-12-22T00:26:36;98232.03;;;5.82;100.00
75942;BME280;64622;46.220;19.878;2023-12-22T00:29:03;98243.50;;;5.97;100.00
75942;BME280;64622;46.220;19.878;2023-12-22T00:31:30;98239.53;;;5.93;100.00
75942;BME280;64622;46.220;19.878;2023-12-22T00:33:56;98241.94;;;6.02;100.00
75942;BME280;64622;46.220;19.878;2023-12-22T00:36:23;98232.22;;;5.94;100.00
75942;BME280;64622;46.220;19.878;2023-12-22T00:38:51;98236.31;;;5.82;100.00
75942;BME280;64622;46.220;19.878;2023-12-22T00:41:18;98223.78;;;5.68;100.00
75942;BME280;64622;46.220;19.878;2023-12-22T00:43:45;98229.97;;;5.61;100.00
75942;BME280;64622;46.220;19.878;2023-12-22T00:46:13;98235.25;;;5.69;100.00
75942;BME280;64622;46.220;19.878;2023-12-22T00:48:40;98230.28;;;5.66;100.00
75942;BME280;64622;46.220;19.878;2023-12-22T00:51:07;98217.25;;;5.34;100.00
75942;BME280;64622;46.220;19.878;2023-12-22T00:53:34;98225.06;;;5.35;100.00
75942;BME280;64622;46.220;19.878;2023-12-22T00:56:01;98209.34;;;5.26;100.00
75942;BME280;64622;46.220;19.878;2023-12-22T00:58:29;98229.62;;;5.19;100.00
75942;BME280;64622;46.220;19.878;2023-12-22T01:00:57;98212.53;;;5.21;100.00
75942;BME280;64622;46.220;19.878;2023-12-22T01:08:44;98227.69;;;5.35;100.00
75942;BME280;64622;46.220;19.878;2023-12-22T01:11:10;98211.53;;;5.67;100.00
75942;BME280;64622;46.220;19.878;2023-12-22T01:13:37;98199.72;;;5.93;100.00
75942;BME280;64622;46.220;19.878;2023-12-22T01:16:04;98198.53;;;6.09;100.00
75942;BME280;64622;46.220;19.878;2023-12-22T01:18:43;98187.41;;;6.14;100.00
75942;BME280;64622;46.220;19.878;2023-12-22T01:21:11;98168.41;;;6.17;100.00
75942;BME280;64622;46.220;19.878;2023-12-22T01:23:37;98189.88;;;6.30;100.00
75942;BME280;64622;46.220;19.878;2023-12-22T01:26:04;98177.31;;;6.38;100.00
75942;BME280;64622;46.220;19.878;2023-12-22T01:31:12;98141.84;;;6.61;100.00
75942;BME280;64622;46.220;19.878;2023-12-22T01:33:39;98155.66;;;6.71;100.00
75942;BME280;64622;46.220;19.878;2023-12-22T01:36:05;98159.25;;;6.63;100.00
75942;BME280;64622;46.220;19.878;2023-12-22T01:38:32;98197.84;;;6.59;100.00
75942;BME280;64622;46.220;19.878;2023-12-22T01:40:59;98215.44;;;6.46;100.00
75942;BME280;64622;46.220;19.878;2023-12-22T01:43:26;98261.81;;;6.43;100.00
75942;BME280;64622;46.220;19.878;2023-12-22T01:45:56;98315.34;;;6.32;100.00
75942;BME280;64622;46.220;19.878;2023-12-22T01:48:26;98328.03;;;6.44;100.00
75942;BME280;64622;46.220;19.878;2023-12-22T01:50:55;98332.72;;;6.43;100.00
75942;BME280;64622;46.220;19.878;2023-12-22T01:53:24;98346.97;;;6.64;100.00
75942;BME280;64622;46.220;19.878;2023-12-22T01:55:54;98375.84;;;6.44;100.00
75942;BME280;64622;46.220;19.878;2023-12-22T01:58:26;98394.88;;;6.33;100.00
75942;BME280;64622;46.220;19.878;2023-12-22T02:00:53;98408.63;;;6.37;100.00
75942;BME280;64622;46.220;19.878;2023-12-22T02:03:21;98401.69;;;6.13;100.00
75942;BME280;64622;46.220;19.878;2023-12-22T02:05:49;98408.03;;;6.04;100.00
75942;BME280;64622;46.220;19.878;2023-12-22T02:08:17;98405.03;;;6.07;100.00
75942;BME280;64622;46.220;19.878;2023-12-22T02:10:45;98410.50;;;5.83;100.00
75942;BME280;64622;46.220;19.878;2023-12-22T02:13:12;98414.16;;;5.82;100.00
75942;BME280;64622;46.220;19.878;2023-12-22T02:15:38;98399.91;;;5.75;100.00
75942;BME280;64622;46.220;19.878;2023-12-22T02:18:17;98399.87;;;5.83;100.00
75942;BME280;64622;46.220;19.878;2023-12-22T02:20:46;98422.63;;;5.78;100.00
75942;BME280;64622;46.220;19.878;2023-12-22T02:23:13;98420.16;;;5.76;100.00
75942;BME280;64622;46.220;19.878;2023-12-22T02:25:40;98404.84;;;5.78;100.00
75942;BME280;64622;46.220;19.878;2023-12-22T02:28:10;98400.06;;;5.82;100.00
75942;BME280;64622;46.220;19.878;2023-12-22T02:30:57;98407.13;;;5.89;100.00
75942;BME280;64622;46.220;19.878;2023-12-22T02:33:29;98417.75;;;5.89;100.00
75942;BME280;64622;46.220;19.878;2023-12-22T02:38:37;98415.78;;;5.92;100.00
75942;BME280;64622;46.220;19.878;2023-12-22T02:41:05;98433.34;;;5.93;100.00
75942;BME280;64622;46.220;19.878;2023-12-22T02:43:32;98429.69;;;5.93;100.00
75942;BME280;64622;46.220;19.878;2023-12-22T02:45:59;98425.41;;;5.84;100.00
75942;BME280;64622;46.220;19.878;2023-12-22T02:48:26;98426.41;;;5.92;100.00
75942;BME280;64622;46.220;19.878;2023-12-22T02:50:52;98430.41;;;5.87;100.00
75942;BME280;64622;46.220;19.878;2023-12-22T02:53:19;98432.09;;;5.81;100.00
75942;BME280;64622;46.220;19.878;2023-12-22T02:55:47;98429.59;;;5.79;100.00
75942;BME280;64622;46.220;19.878;2023-12-22T02:58:25;98431.41;;;5.78;100.00
75942;BME280;64622;46.220;19.878;2023-12-22T03:00:53;98436.56;;;5.80;100.00
75942;BME280;64622;46.220;19.878;2023-12-22T03:03:31;98419.00;;;5.71;100.00
75942;BME280;64622;46.220;19.878;2023-12-22T03:05:58;98393.00;;;5.66;100.00
75942;BME280;64622;46.220;19.878;2023-12-22T03:08:25;98349.94;;;5.56;100.00
75942;BME280;64622;46.220;19.878;2023-12-22T03:10:51;98327.09;;;5.47;100.00
75942;BME280;64622;46.220;19.878;2023-12-22T03:13:19;98322.31;;;5.43;100.00
75942;BME280;64622;46.220;19.878;2023-12-22T03:15:46;98327.44;;;5.44;100.00
75942;BME280;64622;46.220;19.878;2023-12-22T03:18:13;98323.66;;;5.39;100.00
75942;BME280;64622;46.220;19.878;2023-12-22T03:20:40;98321.19;;;5.37;100.00
75942;BME280;64622;46.220;19.878;2023-12-22T03:23:07;98305.50;;;5.28;100.00
75942;BME280;64622;46.220;19.878;2023-12-22T03:25:34;98302.78;;;5.36;100.00
75942;BME280;64622;46.220;19.878;2023-12-22T03:28:01;98315.44;;;5.26;100.00
75942;BME280;64622;46.220;19.878;2023-12-22T03:30:29;98356.59;;;5.14;100.00
75942;BME280;64622;46.220;19.878;2023-12-22T03:35:36;98409.00;;;5.04;100.00
75942;BME280;64622;46.220;19.878;2023-12-22T03:38:02;98415.94;;;5.05;100.00
75942;BME280;64622;46.220;19.878;2023-12-22T03:40:29;98424.91;;;5.12;100.00
75942;BME280;64622;46.220;19.878;2023-12-22T03:42:57;98427.66;;;5.18;100.00
75942;BME280;64622;46.220;19.878;2023-12-22T03:45:24;98423.69;;;5.14;100.00
75942;BME280;64622;46.220;19.878;2023-12-22T03:47:51;98436.72;;;5.32;100.00
75942;BME280;64622;46.220;19.878;2023-12-22T03:50:18;98425.84;;;5.19;100.00
75942;BME280;64622;46.220;19.878;2023-12-22T03:52:45;98394.75;;;5.05;100.00
75942;BME280;64622;46.220;19.878;2023-12-22T03:55:11;98393.41;;;5.09;100.00
75942;BME280;64622;46.220;19.878;2023-12-22T03:57:39;98384.84;;;4.91;100.00
75942;BME280;64622;46.220;19.878;2023-12-22T04:02:45;98400.09;;;4.97;100.00
75942;BME280;64622;46.220;19.878;2023-12-22T04:05:12;98406.03;;;4.91;100.00
75942;BME280;64622;46.220;19.878;2023-12-22T04:07:38;98398.41;;;4.96;100.00
75942;BME280;64622;46.220;19.878;2023-12-22T04:12:44;98405.38;;;4.97;100.00
75942;BME280;64622;46.220;19.878;2023-12-22T04:15:11;98412.19;;;4.83;100.00
75942;BME280;64622;46.220;19.878;2023-12-22T04:17:38;98423.09;;;4.96;100.00
75942;BME280;64622;46.220;19.878;2023-12-22T04:20:08;98427.41;;;4.97;100.00
75942;BME280;64622;46.220;19.878;2023-12-22T04:22:35;98411.00;;;5.02;100.00
75942;BME280;64622;46.220;19.878;2023-12-22T04:25:01;98406.69;;;5.01;100.00
75942;BME280;64622;46.220;19.878;2023-12-22T04:27:28;98410.00;;;4.95;100.00
75942;BME280;64622;46.220;19.878;2023-12-22T04:29:55;98403.53;;;5.05;100.00
75942;BME280;64622;46.220;19.878;2023-12-22T04:32:21;98408.31;;;5.10;100.00
75942;BME280;64622;46.220;19.878;2023-12-22T04:34:48;98401.41;;;4.85;100.00
75942;BME280;64622;46.220;19.878;2023-12-22T04:37:15;98384.03;;;4.90;100.00
75942;BME280;64622;46.220;19.878;2023-12-22T04:39:42;98391.50;;;4.87;100.00
75942;BME280;64622;46.220;19.878;2023-12-22T04:42:08;98390.84;;;4.77;100.00
75942;BME280;64622;46.220;19.878;2023-12-22T04:44:35;98404.91;;;4.85;100.00
75942;BME280;64622;46.220;19.878;2023-12-22T04:47:02;98397.53;;;5.11;100.00
75942;BME280;64622;46.220;19.878;2023-12-22T04:49:29;98402.09;;;4.87;100.00
75942;BME280;64622;46.220;19.878;2023-12-22T04:51:56;98390.31;;;4.89;100.00
75942;BME280;64622;46.220;19.878;2023-12-22T04:54:22;98363.28;;;5.02;100.00
75942;BME280;64622;46.220;19.878;2023-12-22T04:56:49;98376.53;;;5.02;100.00
75942;BME280;64622;46.220;19.878;2023-12-22T04:59:16;98393.28;;;4.94;100.00
75942;BME280;64622;46.220;19.878;2023-12-22T05:01:55;98415.31;;;4.95;100.00
75942;BME280;64622;46.220;19.878;2023-12-22T05:04:21;98433.69;;;4.88;100.00
75942;BME280;64622;46.220;19.878;2023-12-22T05:06:48;98418.13;;;4.93;100.00
75942;BME280;64622;46.220;19.878;2023-12-22T05:09:16;98425.56;;;5.06;100.00
75942;BME280;64622;46.220;19.878;2023-12-22T05:11:43;98446.44;;;5.01;100.00
75942;BME280;64622;46.220;19.878;2023-12-22T05:14:09;98455.56;;;4.98;100.00
75942;BME280;64622;46.220;19.878;2023-12-22T05:16:36;98460.22;;;4.96;100.00
75942;BME280;64622;46.220;19.878;2023-12-22T05:19:06;98443.53;;;5.34;100.00
75942;BME280;64622;46.220;19.878;2023-12-22T05:21:32;98439.13;;;5.11;100.00
75942;BME280;64622;46.220;19.878;2023-12-22T05:23:59;98465.84;;;5.01;100.00
75942;BME280;64622;46.220;19.878;2023-12-22T05:26:26;98444.94;;;4.98;100.00
75942;BME280;64622;46.220;19.878;2023-12-22T05:28:56;98431.22;;;5.03;100.00
75942;BME280;64622;46.220;19.878;2023-12-22T05:31:23;98438.81;;;5.06;100.00
75942;BME280;64622;46.220;19.878;2023-12-22T05:33:50;98449.97;;;4.85;100.00
75942;BME280;64622;46.220;19.878;2023-12-22T05:36:17;98454.94;;;4.80;100.00
75942;BME280;64622;46.220;19.878;2023-12-22T05:38:44;98456.41;;;4.75;100.00
75942;BME280;64622;46.220;19.878;2023-12-22T05:41:11;98508.09;;;4.63;100.00
75942;BME280;64622;46.220;19.878;2023-12-22T05:43:37;98490.69;;;4.68;100.00
75942;BME280;64622;46.220;19.878;2023-12-22T05:46:04;98494.69;;;4.56;100.00
75942;BME280;64622;46.220;19.878;2023-12-22T05:48:31;98509.59;;;4.49;100.00
75942;BME280;64622;46.220;19.878;2023-12-22T05:51:11;98482.75;;;4.36;100.00
75942;BME280;64622;46.220;19.878;2023-12-22T05:53:40;98506.59;;;4.36;100.00
75942;BME280;64622;46.220;19.878;2023-12-22T05:56:20;98506.91;;;4.33;100.00
75942;BME280;64622;46.220;19.878;2023-12-22T05:58:48;98511.38;;;4.33;100.00
75942;BME280;64622;46.220;19.878;2023-12-22T06:01:17;98498.94;;;4.17;100.00
75942;BME280;64622;46.220;19.878;2023-12-22T06:03:45;98513.16;;;4.16;100.00
75942;BME280;64622;46.220;19.878;2023-12-22T06:06:13;98527.75;;;4.28;100.00
75942;BME280;64622;46.220;19.878;2023-12-22T06:08:40;98527.94;;;4.27;100.00
75942;BME280;64622;46.220;19.878;2023-12-22T06:11:07;98578.59;;;4.40;100.00
75942;BME280;64622;46.220;19.878;2023-12-22T06:13:34;98602.12;;;4.51;100.00
75942;BME280;64622;46.220;19.878;2023-12-22T06:16:01;98587.59;;;4.63;100.00
75942;BME280;64622;46.220;19.878;2023-12-22T06:18:27;98587.41;;;4.56;100.00
75942;BME280;64622;46.220;19.878;2023-12-22T06:21:08;98597.16;;;4.48;100.00
75942;BME280;64622;46.220;19.878;2023-12-22T06:23:35;98603.63;;;4.61;100.00
75942;BME280;64622;46.220;19.878;2023-12-22T06:26:09;98613.41;;;4.61;100.00
75942;BME280;64622;46.220;19.878;2023-12-22T06:28:37;98620.72;;;4.75;100.00
75942;BME280;64622;46.220;19.878;2023-12-22T06:31:06;98629.81;;;4.72;100.00
75942;BME280;64622;46.220;19.878;2023-12-22T06:33:33;98627.78;;;4.58;100.00
75942;BME280;64622;46.220;19.878;2023-12-22T06:36:00;98622.19;;;4.61;100.00
75942;BME280;64622;46.220;19.878;2023-12-22T06:38:26;98640.09;;;4.67;100.00
75942;BME280;64622;46.220;19.878;2023-12-22T06:40:53;98650.31;;;4.54;100.00
75942;BME280;64622;46.220;19.878;2023-12-22T06:43:19;98653.78;;;4.47;100.00
75942;BME280;64622;46.220;19.878;2023-12-22T06:45:46;98654.94;;;4.44;100.00
75942;BME280;64622;46.220;19.878;2023-12-22T06:48:13;98652.41;;;4.35;100.00
75942;BME280;64622;46.220;19.878;2023-12-22T06:50:40;98667.56;;;4.25;100.00
75942;BME280;64622;46.220;19.878;2023-12-22T06:53:06;98682.13;;;4.21;100.00
75942;BME280;64622;46.220;19.878;2023-12-22T06:55:33;98682.59;;;4.16;100.00
75942;BME280;64622;46.220;19.878;2023-12-22T06:58:00;98688.75;;;4.25;100.00
75942;BME280;64622;46.220;19.878;2023-12-22T07:00:28;98688.81;;;4.41;100.00
75942;BME280;64622;46.220;19.878;2023-12-22T07:02:54;98681.22;;;4.38;100.00
75942;BME280;64622;46.220;19.878;2023-12-22T07:05:34;98678.06;;;4.34;100.00
75942;BME280;64622;46.220;19.878;2023-12-22T07:08:02;98687.88;;;4.50;100.00
75942;BME280;64622;46.220;19.878;2023-12-22T07:10:42;98678.03;;;4.68;100.00
75942;BME280;64622;46.220;19.878;2023-12-22T07:13:08;98679.72;;;4.85;100.00
75942;BME280;64622;46.220;19.878;2023-12-22T07:15:35;98667.09;;;4.79;100.00
75942;BME280;64622;46.220;19.878;2023-12-22T07:18:01;98641.94;;;4.83;100.00
75942;BME280;64622;46.220;19.878;2023-12-22T07:20:41;98628.00;;;4.73;100.00
75942;BME280;64622;46.220;19.878;2023-12-22T07:23:10;98637.44;;;4.67;100.00
75942;BME280;64622;46.220;19.878;2023-12-22T07:25:37;98622.72;;;4.89;100.00
75942;BME280;64622;46.220;19.878;2023-12-22T07:28:06;98626.72;;;5.01;100.00
75942;BME280;64622;46.220;19.878;2023-12-22T07:30:33;98620.09;;;4.97;100.00
75942;BME280;64622;46.220;19.878;2023-12-22T07:32:59;98625.41;;;4.97;100.00
75942;BME280;64622;46.220;19.878;2023-12-22T07:35:26;98634.03;;;5.15;100.00
75942;BME280;64622;46.220;19.878;2023-12-22T07:37:53;98629.72;;;4.98;100.00
75942;BME280;64622;46.220;19.878;2023-12-22T07:40:31;98645.75;;;4.88;100.00
75942;BME280;64622;46.220;19.878;2023-12-22T07:42:59;98644.41;;;4.76;100.00
75942;BME280;64622;46.220;19.878;2023-12-22T07:45:25;98651.03;;;4.64;100.00
75942;BME280;64622;46.220;19.878;2023-12-22T07:47:54;98657.34;;;4.87;100.00
75942;BME280;64622;46.220;19.878;2023-12-22T07:50:21;98666.87;;;5.38;100.00
75942;BME280;64622;46.220;19.878;2023-12-22T07:52:47;98689.72;;;5.95;100.00
75942;BME280;64622;46.220;19.878;2023-12-22T07:55:14;98678.41;;;6.09;100.00
75942;BME280;64622;46.220;19.878;2023-12-22T07:57:43;98673.25;;;6.16;100.00
75942;BME280;64622;46.220;19.878;2023-12-22T08:00:10;98657.50;;;6.14;100.00
75942;BME280;64622;46.220;19.878;2023-12-22T08:02:38;98668.69;;;6.32;100.00
75942;BME280;64622;46.220;19.878;2023-12-22T08:05:05;98672.03;;;6.72;100.00
75942;BME280;64622;46.220;19.878;2023-12-22T08:07:32;98674.41;;;7.21;100.00
75942;BME280;64622;46.220;19.878;2023-12-22T08:12:47;98708.03;;;7.36;100.00
75942;BME280;64622;46.220;19.878;2023-12-22T08:15:13;98719.09;;;7.47;100.00
75942;BME280;64622;46.220;19.878;2023-12-22T08:17:48;98730.16;;;7.37;100.00
75942;BME280;64622;46.220;19.878;2023-12-22T08:20:19;98730.56;;;7.70;100.00
75942;BME280;64622;46.220;19.878;2023-12-22T08:22:50;98725.19;;;7.33;100.00
75942;BME280;64622;46.220;19.878;2023-12-22T08:25:17;98719.84;;;7.78;100.00
75942;BME280;64622;46.220;19.878;2023-12-22T08:27:47;98715.56;;;7.92;100.00
75942;BME280;64622;46.220;19.878;2023-12-22T08:30:25;98704.06;;;8.43;100.00
75942;BME280;64622;46.220;19.878;2023-12-22T08:32:52;98689.87;;;8.13;100.00
75942;BME280;64622;46.220;19.878;2023-12-22T08:35:19;98680.84;;;8.23;99.50
75942;BME280;64622;46.220;19.878;2023-12-22T08:37:46;98700.50;;;8.36;99.41
75942;BME280;64622;46.220;19.878;2023-12-22T08:40:13;98696.66;;;8.24;99.66
75942;BME280;64622;46.220;19.878;2023-12-22T08:42:40;98682.87;;;7.98;99.95
75942;BME280;64622;46.220;19.878;2023-12-22T08:47:47;98698.09;;;8.56;98.19
75942;BME280;64622;46.220;19.878;2023-12-22T08:50:13;98714.28;;;8.25;95.47
75942;BME280;64622;46.220;19.878;2023-12-22T08:52:40;98734.31;;;8.36;94.18
75942;BME280;64622;46.220;19.878;2023-12-22T08:55:08;98698.75;;;8.58;94.68
75942;BME280;64622;46.220;19.878;2023-12-22T08:57:35;98698.44;;;8.96;96.64
75942;BME280;64622;46.220;19.878;2023-12-22T09:00:01;98689.25;;;8.84;95.33
75942;BME280;64622;46.220;19.878;2023-12-22T09:02:28;98702.50;;;9.28;94.75
75942;BME280;64622;46.220;19.878;2023-12-22T09:04:55;98695.25;;;9.43;94.24
75942;BME280;64622;46.220;19.878;2023-12-22T09:07:21;98681.00;;;8.65;96.62
75942;BME280;64622;46.220;19.878;2023-12-22T09:10:01;98699.31;;;8.68;97.20
75942;BME280;64622;46.220;19.878;2023-12-22T09:12:28;98702.59;;;8.70;95.96
75942;BME280;64622;46.220;19.878;2023-12-22T09:14:55;98703.81;;;8.82;97.86
75942;BME280;64622;46.220;19.878;2023-12-22T09:17:21;98723.06;;;9.69;94.04
75942;BME280;64622;46.220;19.878;2023-12-22T09:19:47;98728.75;;;9.45;92.87
75942;BME280;64622;46.220;19.878;2023-12-22T09:22:14;98704.22;;;9.35;92.12
75942;BME280;64622;46.220;19.878;2023-12-22T09:24:53;98712.56;;;9.68;90.54
75942;BME280;64622;46.220;19.878;2023-12-22T09:27:19;98707.31;;;10.02;86.84
75942;BME280;64622;46.220;19.878;2023-12-22T09:29:46;98713.66;;;10.22;87.29
75942;BME280;64622;46.220;19.878;2023-12-22T09:32:27;98700.50;;;10.27;87.32
75942;BME280;64622;46.220;19.878;2023-12-22T09:34:53;98709.66;;;10.39;85.60
75942;BME280;64622;46.220;19.878;2023-12-22T09:37:23;98705.97;;;8.93;86.84
75942;BME280;64622;46.220;19.878;2023-12-22T09:39:49;98704.22;;;8.13;90.54
75942;BME280;64622;46.220;19.878;2023-12-22T09:42:16;98684.63;;;8.93;87.53
75942;BME280;64622;46.220;19.878;2023-12-22T09:44:44;98674.91;;;9.42;85.72
75942;BME280;64622;46.220;19.878;2023-12-22T09:47:13;98691.44;;;9.73;83.39
75942;BME280;64622;46.220;19.878;2023-12-22T09:49:40;98681.06;;;9.63;83.05
75942;BME280;64622;46.220;19.878;2023-12-22T09:52:08;98686.41;;;9.42;84.43
75942;BME280;64622;46.220;19.878;2023-12-22T09:57:16;98686.31;;;9.99;86.03
75942;BME280;64622;46.220;19.878;2023-12-22T09:59:43;98664.78;;;9.58;85.28
75942;BME280;64622;46.220;19.878;2023-12-22T10:02:10;98671.75;;;9.32;84.37
75942;BME280;64622;46.220;19.878;2023-12-22T10:04:38;98671.28;;;9.70;83.35
75942;BME280;64622;46.220;19.878;2023-12-22T10:07:05;98667.97;;;10.17;80.60
75942;BME280;64622;46.220;19.878;2023-12-22T10:09:34;98687.91;;;10.14;80.02
75942;BME280;64622;46.220;19.878;2023-12-22T10:12:03;98680.91;;;9.92;79.50
75942;BME280;64622;46.220;19.878;2023-12-22T10:14:32;98685.47;;;10.19;75.92
75942;BME280;64622;46.220;19.878;2023-12-22T10:17:02;98681.72;;;10.14;77.27
75942;BME280;64622;46.220;19.878;2023-12-22T10:19:29;98661.78;;;9.26;78.51
75942;BME280;64622;46.220;19.878;2023-12-22T10:21:55;98692.66;;;10.19;77.00
75942;BME280;64622;46.220;19.878;2023-12-22T10:29:49;98701.47;;;10.87;72.65
75942;BME280;64622;46.220;19.878;2023-12-22T10:32:16;98679.22;;;10.12;70.44
75942;BME280;64622;46.220;19.878;2023-12-22T10:34:43;98676.63;;;9.98;71.35
75942;BME280;64622;46.220;19.878;2023-12-22T10:37:10;98664.28;;;10.18;68.29
75942;BME280;64622;46.220;19.878;2023-12-22T10:39:51;98673.66;;;10.82;66.63
75942;BME280;64622;46.220;19.878;2023-12-22T10:42:19;98676.47;;;10.67;66.37
75942;BME280;64622;46.220;19.878;2023-12-22T10:44:46;98660.78;;;9.96;66.03
75942;BME280;64622;46.220;19.878;2023-12-22T10:52:34;98630.00;;;9.73;68.70
75942;BME280;64622;46.220;19.878;2023-12-22T10:55:00;98643.53;;;10.67;66.04
75942;BME280;64622;46.220;19.878;2023-12-22T10:57:31;98639.97;;;11.07;65.17
75942;BME280;64622;46.220;19.878;2023-12-22T11:00:05;98637.97;;;11.28;62.52
75942;BME280;64622;46.220;19.878;2023-12-22T11:02:35;98635.75;;;11.64;62.22
75942;BME280;64622;46.220;19.878;2023-12-22T11:05:04;98640.09;;;11.59;61.10
75942;BME280;64622;46.220;19.878;2023-12-22T11:07:36;98652.66;;;9.83;60.32
75942;BME280;64622;46.220;19.878;2023-12-22T11:10:05;98641.97;;;10.79;59.72
75942;BME280;64622;46.220;19.878;2023-12-22T11:12:35;98636.50;;;10.53;60.85
75942;BME280;64622;46.220;19.878;2023-12-22T11:15:02;98645.28;;;10.87;60.10
75942;BME280;64622;46.220;19.878;2023-12-22T11:17:44;98633.56;;;10.41;62.10
75942;BME280;64622;46.220;19.878;2023-12-22T11:20:14;98646.31;;;10.46;62.85
75942;BME280;64622;46.220;19.878;2023-12-22T11:22:43;98636.31;;;9.44;65.29
75942;BME280;64622;46.220;19.878;2023-12-22T11:25:11;98630.53;;;9.20;67.67
75942;BME280;64622;46.220;19.878;2023-12-22T11:27:39;98659.66;;;10.05;65.44
75942;BME280;64622;46.220;19.878;2023-12-22T11:30:06;98648.56;;;9.60;65.88
75942;BME280;64622;46.220;19.878;2023-12-22T11:32:39;98659.66;;;10.05;64.35
75942;BME280;64622;46.220;19.878;2023-12-22T11:35:06;98659.69;;;10.86;63.38
75942;BME280;64622;46.220;19.878;2023-12-22T11:37:47;98670.31;;;11.27;61.75
75942;BME280;64622;46.220;19.878;2023-12-22T11:40:16;98683.19;;;10.97;61.16
75942;BME280;64622;46.220;19.878;2023-12-22T11:42:46;98676.31;;;11.48;60.30
75942;BME280;64622;46.220;19.878;2023-12-22T11:45:17;98652.56;;;11.13;60.29
75942;BME280;64622;46.220;19.878;2023-12-22T11:47:46;98657.97;;;11.32;59.68
75942;BME280;64622;46.220;19.878;2023-12-22T11:50:28;98680.22;;;11.39;59.13
75942;BME280;64622;46.220;19.878;2023-12-22T11:52:55;98669.72;;;10.71;57.15
75942;BME280;64622;46.220;19.878;2023-12-22T11:55:56;98663.72;;;10.69;56.06
75942;BME280;64622;46.220;19.878;2023-12-22T11:58:46;98664.16;;;10.73;56.81
75942;BME280;64622;46.220;19.878;2023-12-22T12:01:25;98673.47;;;10.83;56.90
75942;BME280;64622;46.220;19.878;2023-12-22T12:03:59;98659.50;;;10.88;57.38
75942;BME280;64622;46.220;19.878;2023-12-22T12:09:00;98660.25;;;10.75;58.59
75942;BME280;64622;46.220;19.878;2023-12-22T12:17:08;98684.94;;;9.40;61.06
75942;BME280;64622;46.220;19.878;2023-12-22T12:19:37;98676.56;;;9.22;61.26
75942;BME280;64622;46.220;19.878;2023-12-22T12:22:04;98677.09;;;8.96;61.49
75942;BME280;64622;46.220;19.878;2023-12-22T12:24:31;98696.50;;;8.76;61.75
75942;BME280;64622;46.220;19.878;2023-12-22T12:26:58;98691.22;;;8.61;63.95
75942;BME280;64622;46.220;19.878;2023-12-22T12:29:25;98703.38;;;8.49;64.72
75942;BME280;64622;46.220;19.878;2023-12-22T12:32:05;98674.56;;;8.45;65.93
75942;BME280;64622;46.220;19.878;2023-12-22T12:34:34;98700.31;;;8.38;66.34
75942;BME280;64622;46.220;19.878;2023-12-22T12:37:02;98699.22;;;8.47;66.94
75942;BME280;64622;46.220;19.878;2023-12-22T12:39:30;98680.47;;;8.40;67.99
75942;BME280;64622;46.220;19.878;2023-12-22T12:42:00;98698.56;;;8.45;67.60
75942;BME280;64622;46.220;19.878;2023-12-22T12:44:30;98674.50;;;8.53;68.75
75942;BME280;64622;46.220;19.878;2023-12-22T12:49:40;98690.16;;;9.27;67.12
75942;BME280;64622;46.220;19.878;2023-12-22T12:52:12;98679.84;;;9.45;66.85
75942;BME280;64622;46.220;19.878;2023-12-22T12:54:40;98666.19;;;9.33;65.89
75942;BME280;64622;46.220;19.878;2023-12-22T12:57:14;98673.03;;;8.86;64.83
75942;BME280;64622;46.220;19.878;2023-12-22T12:59:47;98671.16;;;8.65;65.46
75942;BME280;64622;46.220;19.878;2023-12-22T13:02:17;98678.94;;;8.81;65.67
75942;BME280;64622;46.220;19.878;2023-12-22T13:04:44;98676.22;;;8.60;65.88
75942;BME280;64622;46.220;19.878;2023-12-22T13:07:10;98668.59;;;8.57;65.78
75942;BME280;64622;46.220;19.878;2023-12-22T13:09:39;98657.84;;;8.51;65.87
75942;BME280;64622;46.220;19.878;2023-12-22T13:12:08;98667.78;;;8.57;66.80
75942;BME280;64622;46.220;19.878;2023-12-22T13:14:35;98670.72;;;8.62;67.16
75942;BME280;64622;46.220;19.878;2023-12-22T13:17:03;98681.28;;;8.55;67.68
75942;BME280;64622;46.220;19.878;2023-12-22T13:19:29;98675.13;;;8.55;66.48
75942;BME280;64622;46.220;19.878;2023-12-22T13:21:56;98671.38;;;8.49;64.71
75942;BME280;64622;46.220;19.878;2023-12-22T13:24:23;98670.25;;;8.58;64.35
75942;BME280;64622;46.220;19.878;2023-12-22T13:27:04;98652.31;;;8.52;63.32
75942;BME280;64622;46.220;19.878;2023-12-22T13:29:45;98686.72;;;8.62;61.85
75942;BME280;64622;46.220;19.878;2023-12-22T13:32:16;98666.53;;;8.74;59.37
75942;BME280;64622;46.220;19.878;2023-12-22T13:34:55;98648.19;;;8.64;59.18
75942;BME280;64622;46.220;19.878;2023-12-22T13:37:40;98655.88;;;8.74;59.56
75942;BME280;64622;46.220;19.878;2023-12-22T13:40:08;98645.91;;;8.97;59.28
75942;BME280;64622;46.220;19.878;2023-12-22T13:42:57;98634.84;;;8.50;60.66
75942;BME280;64622;46.220;19.878;2023-12-22T13:45:25;98644.69;;;8.35;60.52
75942;BME280;64622;46.220;19.878;2023-12-22T13:47:52;98644.44;;;8.30;60.77
75942;BME280;64622;46.220;19.878;2023-12-22T13:50:19;98650.03;;;8.20;61.90